sensor_id;sensor_type;location;lat;lon;timestamp;temperature;humidity
47162;DHT22;32921;53.256;8.198;2023-04-03T00:02:07;-0.40;99.90
47162;DHT22;32921;53.256;8.198;2023-04-03T00:04:32;-0.80;99.90
47162;DHT22;32921;53.256;8.198;2023-04-03T00:06:58;-0.90;99.90
47162;DHT22;32921;53.256;8.198;2023-04-03T00:09:23;-1.30;99.90
47162;DHT22;32921;53.256;8.198;2023-04-03T00:11:49;-1.50;99.90
47162;DHT22;32921;53.256;8.198;2023-04-03T00:14:14;-1.70;99.90
47162;DHT22;32921;53.256;8.198;2023-04-03T00:16:40;-1.60;99.90
47162;DHT22;32921;53.256;8.198;2023-04-03T00:19:05;-1.20;99.90
47162;DHT22;32921;53.256;8.198;2023-04-03T00:21:31;-1.40;99.90
47162;DHT22;32921;53.256;8.198;2023-04-03T00:23:57;-1.50;99.90
47162;DHT22;32921;53.256;8.198;2023-04-03T00:26:22;-1.40;99.90
47162;DHT22;32921;53.256;8.198;2023-04-03T00:28:48;-1.40;99.90
47162;DHT22;32921;53.256;8.198;2023-04-03T00:31:16;-1.40;99.90
47162;DHT22;32921;53.256;8.198;2023-04-03T00:33:42;-1.30;99.90
47162;DHT22;32921;53.256;8.198;2023-04-03T00:36:09;-1.50;99.90
47162;DHT22;32921;53.256;8.198;2023-04-03T00:38:35;-1.70;99.90
47162;DHT22;32921;53.256;8.198;2023-04-03T00:41:00;-1.90;99.90
47162;DHT22;32921;53.256;8.198;2023-04-03T00:43:26;-1.90;99.90
47162;DHT22;32921;53.256;8.198;2023-04-03T00:45:55;-1.90;99.90
47162;DHT22;32921;53.256;8.198;2023-04-03T00:48:31;-2.10;99.90
47162;DHT22;32921;53.256;8.198;2023-04-03T00:50:58;-2.30;99.90
47162;DHT22;32921;53.256;8.198;2023-04-03T00:53:46;-2.40;99.90
47162;DHT22;32921;53.256;8.198;2023-04-03T00:56:15;-2.50;99.90
47162;DHT22;32921;53.256;8.198;2023-04-03T00:58:58;-2.60;99.90
47162;DHT22;32921;53.256;8.198;2023-04-03T01:01:27;-2.90;99.90
47162;DHT22;32921;53.256;8.198;2023-04-03T01:03:53;-3.10;99.90
47162;DHT22;32921;53.256;8.198;2023-04-03T01:06:23;-3.20;99.90
47162;DHT22;32921;53.256;8.198;2023-04-03T01:08:50;-3.10;99.90
47162;DHT22;32921;53.256;8.198;2023-04-03T01:11:16;-2.80;99.90
47162;DHT22;32921;53.256;8.198;2023-04-03T01:13:42;-2.00;99.90
47162;DHT22;32921;53.256;8.198;2023-04-03T01:16:08;-1.60;99.90
47162;DHT22;32921;53.256;8.198;2023-04-03T01:18:35;-1.50;99.90
47162;DHT22;32921;53.256;8.198;2023-04-03T01:26:49;-1.00;99.90
47162;DHT22;32921;53.256;8.198;2023-04-03T01:29:15;-1.10;99.90
47162;DHT22;32921;53.256;8.198;2023-04-03T01:31:51;-1.20;99.90
47162;DHT22;32921;53.256;8.198;2023-04-03T01:34:17;-1.30;99.90
47162;DHT22;32921;53.256;8.198;2023-04-03T01:36:42;-1.40;99.90
47162;DHT22;32921;53.256;8.198;2023-04-03T01:39:08;-1.50;99.90
47162;DHT22;32921;53.256;8.198;2023-04-03T01:41:34;-1.60;99.90
47162;DHT22;32921;53.256;8.198;2023-04-03T01:43:59;-1.60;99.90
47162;DHT22;32921;53.256;8.198;2023-04-03T01:46:25;-1.50;99.90
47162;DHT22;32921;53.256;8.198;2023-04-03T01:48:51;-1.50;99.90
47162;DHT22;32921;53.256;8.198;2023-04-03T01:51:17;-1.60;99.90
47162;DHT22;32921;53.256;8.198;2023-04-03T01:53:42;-1.50;99.90
47162;DHT22;32921;53.256;8.198;2023-04-03T01:56:08;-1.60;99.90
47162;DHT22;32921;53.256;8.198;2023-04-03T01:58:34;-1.70;99.90
47162;DHT22;32921;53.256;8.198;2023-04-03T02:00:59;-1.60;99.90
47162;DHT22;32921;53.256;8.198;2023-04-03T02:03:25;-1.70;99.90
47162;DHT22;32921;53.256;8.198;2023-04-03T02:05:51;-1.80;99.90
47162;DHT22;32921;53.256;8.198;2023-04-03T02:08:17;-1.60;99.90
47162;DHT22;32921;53.256;8.198;2023-04-03T02:10:49;-1.70;99.90
47162;DHT22;32921;53.256;8.198;2023-04-03T02:13:16;-1.60;99.90
47162;DHT22;32921;53.256;8.198;2023-04-03T02:15:41;-1.50;99.90
47162;DHT22;32921;53.256;8.198;2023-04-03T02:18:07;-1.60;99.90
47162;DHT22;32921;53.256;8.198;2023-04-03T02:20:33;-1.60;99.90
47162;DHT22;32921;53.256;8.198;2023-04-03T02:23:00;-1.70;99.90
47162;DHT22;32921;53.256;8.198;2023-04-03T02:25:26;-1.60;99.90
47162;DHT22;32921;53.256;8.198;2023-04-03T02:27:51;-1.60;99.90
47162;DHT22;32921;53.256;8.198;2023-04-03T02:30:17;-1.70;99.90
47162;DHT22;32921;53.256;8.198;2023-04-03T02:32:43;-1.70;99.90
47162;DHT22;32921;53.256;8.198;2023-04-03T02:35:12;-1.70;99.90
47162;DHT22;32921;53.256;8.198;2023-04-03T02:37:38;-1.70;99.90
47162;DHT22;32921;53.256;8.198;2023-04-03T02:40:05;-1.70;99.90
47162;DHT22;32921;53.256;8.198;2023-04-03T02:42:31;-1.80;99.90
47162;DHT22;32921;53.256;8.198;2023-04-03T02:44:57;-1.90;99.90
47162;DHT22;32921;53.256;8.198;2023-04-03T02:47:22;-1.90;99.90
47162;DHT22;32921;53.256;8.198;2023-04-03T02:49:48;-2.00;99.90
47162;DHT22;32921;53.256;8.198;2023-04-03T02:52:14;-2.00;99.90
47162;DHT22;32921;53.256;8.198;2023-04-03T02:54:40;-2.30;99.90
47162;DHT22;32921;53.256;8.198;2023-04-03T02:57:06;-2.40;99.90
47162;DHT22;32921;53.256;8.198;2023-04-03T02:59:35;-2.60;99.90
47162;DHT22;32921;53.256;8.198;2023-04-03T03:02:01;-2.60;99.90
47162;DHT22;32921;53.256;8.198;2023-04-03T03:04:26;-2.70;99.90
47162;DHT22;32921;53.256;8.198;2023-04-03T03:06:52;-2.70;99.90
47162;DHT22;32921;53.256;8.198;2023-04-03T03:09:18;-2.90;99.90
47162;DHT22;32921;53.256;8.198;2023-04-03T03:11:43;-2.90;99.90
47162;DHT22;32921;53.256;8.198;2023-04-03T03:14:09;-2.90;99.90
47162;DHT22;32921;53.256;8.198;2023-04-03T03:16:35;-3.00;99.90
47162;DHT22;32921;53.256;8.198;2023-04-03T03:19:00;-3.00;99.90
47162;DHT22;32921;53.256;8.198;2023-04-03T03:21:26;-3.10;99.90
47162;DHT22;32921;53.256;8.198;2023-04-03T03:23:52;-3.10;99.90
47162;DHT22;32921;53.256;8.198;2023-04-03T03:26:18;-3.00;99.90
47162;DHT22;32921;53.256;8.198;2023-04-03T03:28:43;-3.10;99.90
47162;DHT22;32921;53.256;8.198;2023-04-03T03:31:09;-3.00;99.90
47162;DHT22;32921;53.256;8.198;2023-04-03T03:33:35;-3.00;99.90
47162;DHT22;32921;53.256;8.198;2023-04-03T03:36:01;-2.90;99.90
47162;DHT22;32921;53.256;8.198;2023-04-03T03:38:27;-2.50;99.90
47162;DHT22;32921;53.256;8.198;2023-04-03T03:40:52;-2.20;99.90
47162;DHT22;32921;53.256;8.198;2023-04-03T03:43:18;-2.30;99.90
47162;DHT22;32921;53.256;8.198;2023-04-03T03:45:50;-2.50;99.90
47162;DHT22;32921;53.256;8.198;2023-04-03T03:48:15;-2.70;99.90
47162;DHT22;32921;53.256;8.198;2023-04-03T03:50:41;-2.90;99.90
47162;DHT22;32921;53.256;8.198;2023-04-03T03:53:06;-3.00;99.90
47162;DHT22;32921;53.256;8.198;2023-04-03T03:55:32;-3.10;99.90
47162;DHT22;32921;53.256;8.198;2023-04-03T03:57:57;-3.20;99.90
47162;DHT22;32921;53.256;8.198;2023-04-03T04:00:23;-3.30;99.90
47162;DHT22;32921;53.256;8.198;2023-04-03T04:02:48;-3.40;99.90
47162;DHT22;32921;53.256;8.198;2023-04-03T04:05:14;-3.40;99.90
47162;DHT22;32921;53.256;8.198;2023-04-03T04:07:40;-3.40;99.90
47162;DHT22;32921;53.256;8.198;2023-04-03T04:10:06;-3.40;99.90
47162;DHT22;32921;53.256;8.198;2023-04-03T04:12:31;-3.50;99.90
47162;DHT22;32921;53.256;8.198;2023-04-03T04:14:57;-3.60;99.90
47162;DHT22;32921;53.256;8.198;2023-04-03T04:17:23;-3.50;99.90
47162;DHT22;32921;53.256;8.198;2023-04-03T04:19:48;-3.50;99.90
47162;DHT22;32921;53.256;8.198;2023-04-03T04:22:14;-3.50;99.90
47162;DHT22;32921;53.256;8.198;2023-04-03T04:24:39;-3.40;99.90
47162;DHT22;32921;53.256;8.198;2023-04-03T04:27:05;-3.40;99.90
47162;DHT22;32921;53.256;8.198;2023-04-03T04:29:30;-3.20;99.90
47162;DHT22;32921;53.256;8.198;2023-04-03T04:32:01;-3.20;99.90
47162;DHT22;32921;53.256;8.198;2023-04-03T04:34:27;-3.20;99.90
47162;DHT22;32921;53.256;8.198;2023-04-03T04:36:52;-3.30;99.90
47162;DHT22;32921;53.256;8.198;2023-04-03T04:39:18;-3.30;99.90
47162;DHT22;32921;53.256;8.198;2023-04-03T04:41:43;-3.30;99.90
47162;DHT22;32921;53.256;8.198;2023-04-03T04:44:09;-3.40;99.90
47162;DHT22;32921;53.256;8.198;2023-04-03T04:46:35;-3.50;99.90
47162;DHT22;32921;53.256;8.198;2023-04-03T04:49:00;-3.60;99.90
47162;DHT22;32921;53.256;8.198;2023-04-03T04:51:26;-3.60;99.90
47162;DHT22;32921;53.256;8.198;2023-04-03T04:53:51;-3.60;99.90
47162;DHT22;32921;53.256;8.198;2023-04-03T04:56:17;-3.60;99.90
47162;DHT22;32921;53.256;8.198;2023-04-03T04:58:42;-3.60;99.90
47162;DHT22;32921;53.256;8.198;2023-04-03T05:01:10;-3.60;99.90
47162;DHT22;32921;53.256;8.198;2023-04-03T05:03:36;-3.50;99.90
47162;DHT22;32921;53.256;8.198;2023-04-03T05:06:02;-3.50;99.90
47162;DHT22;32921;53.256;8.198;2023-04-03T05:08:28;-3.40;99.90
47162;DHT22;32921;53.256;8.198;2023-04-03T05:10:54;-3.20;99.90
47162;DHT22;32921;53.256;8.198;2023-04-03T05:13:19;-3.30;99.90
47162;DHT22;32921;53.256;8.198;2023-04-03T05:15:46;-3.20;99.90
47162;DHT22;32921;53.256;8.198;2023-04-03T05:18:12;-3.10;99.90
47162;DHT22;32921;53.256;8.198;2023-04-03T05:20:38;-3.20;99.90
47162;DHT22;32921;53.256;8.198;2023-04-03T05:23:04;-3.10;99.90
47162;DHT22;32921;53.256;8.198;2023-04-03T05:25:30;-3.10;99.90
47162;DHT22;32921;53.256;8.198;2023-04-03T05:27:55;-3.10;99.90
47162;DHT22;32921;53.256;8.198;2023-04-03T05:30:21;-3.00;99.90
47162;DHT22;32921;53.256;8.198;2023-04-03T05:32:47;-3.00;99.90
47162;DHT22;32921;53.256;8.198;2023-04-03T05:35:13;-3.00;99.90
47162;DHT22;32921;53.256;8.198;2023-04-03T05:37:39;-3.00;99.90
47162;DHT22;32921;53.256;8.198;2023-04-03T05:40:06;-3.00;99.90
47162;DHT22;32921;53.256;8.198;2023-04-03T05:42:32;-2.90;99.90
47162;DHT22;32921;53.256;8.198;2023-04-03T05:44:58;-2.90;99.90
47162;DHT22;32921;53.256;8.198;2023-04-03T05:47:23;-2.80;99.90
47162;DHT22;32921;53.256;8.198;2023-04-03T05:49:49;-2.80;99.90
47162;DHT22;32921;53.256;8.198;2023-04-03T05:52:25;-2.70;99.90
47162;DHT22;32921;53.256;8.198;2023-04-03T05:54:51;-2.40;99.90
47162;DHT22;32921;53.256;8.198;2023-04-03T05:57:17;-2.40;99.90
47162;DHT22;32921;53.256;8.198;2023-04-03T05:59:44;-2.40;99.90
47162;DHT22;32921;53.256;8.198;2023-04-03T06:02:20;-1.90;99.90
47162;DHT22;32921;53.256;8.198;2023-04-03T06:04:45;-1.90;99.90
47162;DHT22;32921;53.256;8.198;2023-04-03T06:07:16;-1.90;99.90
47162;DHT22;32921;53.256;8.198;2023-04-03T06:09:43;-1.60;99.90
47162;DHT22;32921;53.256;8.198;2023-04-03T06:12:09;-1.40;99.90
47162;DHT22;32921;53.256;8.198;2023-04-03T06:14:35;-1.30;99.90
47162;DHT22;32921;53.256;8.198;2023-04-03T06:17:00;-1.40;99.90
47162;DHT22;32921;53.256;8.198;2023-04-03T06:19:27;-1.30;99.90
47162;DHT22;32921;53.256;8.198;2023-04-03T06:21:52;-1.00;99.90
47162;DHT22;32921;53.256;8.198;2023-04-03T06:24:18;-0.90;99.90
47162;DHT22;32921;53.256;8.198;2023-04-03T06:26:45;-0.80;99.90
47162;DHT22;32921;53.256;8.198;2023-04-03T06:29:11;-0.50;99.90
47162;DHT22;32921;53.256;8.198;2023-04-03T06:31:37;-0.20;99.90
47162;DHT22;32921;53.256;8.198;2023-04-03T06:34:03;0.10;99.90
47162;DHT22;32921;53.256;8.198;2023-04-03T06:36:29;0.50;99.90
47162;DHT22;32921;53.256;8.198;2023-04-03T06:38:55;0.80;99.90
47162;DHT22;32921;53.256;8.198;2023-04-03T06:41:21;1.00;99.90
47162;DHT22;32921;53.256;8.198;2023-04-03T06:43:47;1.20;99.90
47162;DHT22;32921;53.256;8.198;2023-04-03T06:46:17;1.40;99.90
47162;DHT22;32921;53.256;8.198;2023-04-03T06:48:44;1.60;99.90
47162;DHT22;32921;53.256;8.198;2023-04-03T06:51:30;2.10;99.90
47162;DHT22;32921;53.256;8.198;2023-04-03T06:53:58;2.40;99.90
47162;DHT22;32921;53.256;8.198;2023-04-03T06:56:24;2.80;99.90
47162;DHT22;32921;53.256;8.198;2023-04-03T06:58:51;3.30;99.90
47162;DHT22;32921;53.256;8.198;2023-04-03T07:01:19;3.70;99.90
47162;DHT22;32921;53.256;8.198;2023-04-03T07:03:46;4.10;99.90
47162;DHT22;32921;53.256;8.198;2023-04-03T07:06:14;4.40;99.90
47162;DHT22;32921;53.256;8.198;2023-04-03T07:08:47;4.80;99.90
47162;DHT22;32921;53.256;8.198;2023-04-03T07:11:17;5.10;99.90
47162;DHT22;32921;53.256;8.198;2023-04-03T07:13:43;4.80;99.90
47162;DHT22;32921;53.256;8.198;2023-04-03T07:16:09;4.90;99.90
47162;DHT22;32921;53.256;8.198;2023-04-03T07:18:35;5.10;99.90
47162;DHT22;32921;53.256;8.198;2023-04-03T07:21:02;5.20;98.30
47162;DHT22;32921;53.256;8.198;2023-04-03T07:23:28;5.00;97.00
47162;DHT22;32921;53.256;8.198;2023-04-03T07:25:54;5.30;95.00
47162;DHT22;32921;53.256;8.198;2023-04-03T07:28:20;5.30;94.10
47162;DHT22;32921;53.256;8.198;2023-04-03T07:30:50;5.70;92.70
47162;DHT22;32921;53.256;8.198;2023-04-03T07:33:17;5.80;90.70
47162;DHT22;32921;53.256;8.198;2023-04-03T07:35:44;5.70;92.10
47162;DHT22;32921;53.256;8.198;2023-04-03T07:38:10;6.20;90.60
47162;DHT22;32921;53.256;8.198;2023-04-03T07:40:37;6.40;86.90
47162;DHT22;32921;53.256;8.198;2023-04-03T07:43:03;6.60;85.30
47162;DHT22;32921;53.256;8.198;2023-04-03T07:45:29;6.70;82.00
47162;DHT22;32921;53.256;8.198;2023-04-03T07:47:54;5.80;81.00
47162;DHT22;32921;53.256;8.198;2023-04-03T07:50:22;6.20;82.70
47162;DHT22;32921;53.256;8.198;2023-04-03T07:52:48;6.50;79.00
47162;DHT22;32921;53.256;8.198;2023-04-03T07:55:14;7.00;79.60
47162;DHT22;32921;53.256;8.198;2023-04-03T07:57:40;6.50;79.30
47162;DHT22;32921;53.256;8.198;2023-04-03T08:00:07;6.30;80.90
47162;DHT22;32921;53.256;8.198;2023-04-03T08:02:34;7.10;80.50
47162;DHT22;32921;53.256;8.198;2023-04-03T08:05:00;7.30;76.20
47162;DHT22;32921;53.256;8.198;2023-04-03T08:07:25;7.40;77.40
47162;DHT22;32921;53.256;8.198;2023-04-03T08:09:51;7.90;75.90
47162;DHT22;32921;53.256;8.198;2023-04-03T08:12:17;8.40;73.90
47162;DHT22;32921;53.256;8.198;2023-04-03T08:14:43;8.80;70.40
47162;DHT22;32921;53.256;8.198;2023-04-03T08:17:09;9.10;68.10
47162;DHT22;32921;53.256;8.198;2023-04-03T08:19:38;8.50;67.80
47162;DHT22;32921;53.256;8.198;2023-04-03T08:22:04;8.40;69.50
47162;DHT22;32921;53.256;8.198;2023-04-03T08:24:31;8.10;66.20
47162;DHT22;32921;53.256;8.198;2023-04-03T08:26:56;8.30;65.60
47162;DHT22;32921;53.256;8.198;2023-04-03T08:29:22;8.90;64.70
47162;DHT22;32921;53.256;8.198;2023-04-03T08:31:48;8.90;57.70
47162;DHT22;32921;53.256;8.198;2023-04-03T08:34:16;8.60;59.60
47162;DHT22;32921;53.256;8.198;2023-04-03T08:36:42;8.90;63.30
47162;DHT22;32921;53.256;8.198;2023-04-03T08:39:07;9.10;56.90
47162;DHT22;32921;53.256;8.198;2023-04-03T08:41:43;9.20;55.40
47162;DHT22;32921;53.256;8.198;2023-04-03T08:44:39;9.40;57.50
47162;DHT22;32921;53.256;8.198;2023-04-03T08:49:57;9.70;55.50
47162;DHT22;32921;53.256;8.198;2023-04-03T08:52:40;10.10;52.60
47162;DHT22;32921;53.256;8.198;2023-04-03T08:55:34;10.00;50.00
47162;DHT22;32921;53.256;8.198;2023-04-03T08:58:11;9.80;51.30
47162;DHT22;32921;53.256;8.198;2023-04-03T09:01:03;9.80;52.80
47162;DHT22;32921;53.256;8.198;2023-04-03T09:03:36;9.90;54.50
47162;DHT22;32921;53.256;8.198;2023-04-03T09:06:25;9.30;55.50
47162;DHT22;32921;53.256;8.198;2023-04-03T09:11:53;9.50;57.00
47162;DHT22;32921;53.256;8.198;2023-04-03T09:14:33;8.60;51.70
47162;DHT22;32921;53.256;8.198;2023-04-03T09:17:09;8.70;53.50
47162;DHT22;32921;53.256;8.198;2023-04-03T09:20:02;8.70;56.70
47162;DHT22;32921;53.256;8.198;2023-04-03T09:22:33;8.10;56.00
47162;DHT22;32921;53.256;8.198;2023-04-03T09:25:02;7.60;60.50
47162;DHT22;32921;53.256;8.198;2023-04-03T09:27:29;7.90;59.60
47162;DHT22;32921;53.256;8.198;2023-04-03T09:29:56;8.00;55.90
47162;DHT22;32921;53.256;8.198;2023-04-03T09:34:59;7.70;56.40
47162;DHT22;32921;53.256;8.198;2023-04-03T09:37:39;8.50;58.00
47162;DHT22;32921;53.256;8.198;2023-04-03T09:40:05;9.50;53.40
47162;DHT22;32921;53.256;8.198;2023-04-03T09:42:32;9.90;52.00
47162;DHT22;32921;53.256;8.198;2023-04-03T09:45:03;9.30;51.60
47162;DHT22;32921;53.256;8.198;2023-04-03T09:47:30;9.70;51.00
47162;DHT22;32921;53.256;8.198;2023-04-03T09:52:44;10.50;49.40
47162;DHT22;32921;53.256;8.198;2023-04-03T09:55:22;10.40;48.60
47162;DHT22;32921;53.256;8.198;2023-04-03T09:57:53;9.90;46.70
47162;DHT22;32921;53.256;8.198;2023-04-03T10:00:22;10.00;47.40
47162;DHT22;32921;53.256;8.198;2023-04-03T10:02:51;10.40;49.40
47162;DHT22;32921;53.256;8.198;2023-04-03T10:08:33;10.70;43.00
47162;DHT22;32921;53.256;8.198;2023-04-03T10:11:11;11.30;41.20
47162;DHT22;32921;53.256;8.198;2023-04-03T10:13:49;11.00;38.30
47162;DHT22;32921;53.256;8.198;2023-04-03T10:16:18;11.80;37.50
47162;DHT22;32921;53.256;8.198;2023-04-03T10:19:03;11.60;36.20
47162;DHT22;32921;53.256;8.198;2023-04-03T10:22:07;11.90;35.90
47162;DHT22;32921;53.256;8.198;2023-04-03T10:25:01;10.30;36.80
47162;DHT22;32921;53.256;8.198;2023-04-03T10:30:17;10.20;39.50
47162;DHT22;32921;53.256;8.198;2023-04-03T10:41:26;13.50;32.30
47162;DHT22;32921;53.256;8.198;2023-04-03T10:46:49;12.60;32.30
47162;DHT22;32921;53.256;8.198;2023-04-03T10:50:07;12.10;34.80
47162;DHT22;32921;53.256;8.198;2023-04-03T10:57:30;12.70;32.90
47162;DHT22;32921;53.256;8.198;2023-04-03T11:00:02;11.70;34.90
47162;DHT22;32921;53.256;8.198;2023-04-03T11:05:07;12.60;34.30
47162;DHT22;32921;53.256;8.198;2023-04-03T11:07:43;13.80;32.00
47162;DHT22;32921;53.256;8.198;2023-04-03T11:10:13;14.20;30.80
47162;DHT22;32921;53.256;8.198;2023-04-03T11:12:46;14.60;30.90
47162;DHT22;32921;53.256;8.198;2023-04-03T11:15:17;13.60;30.90
47162;DHT22;32921;53.256;8.198;2023-04-03T11:17:53;12.00;32.80
47162;DHT22;32921;53.256;8.198;2023-04-03T11:20:30;12.20;33.10
47162;DHT22;32921;53.256;8.198;2023-04-03T11:25:31;11.90;36.00
47162;DHT22;32921;53.256;8.198;2023-04-03T11:28:06;12.40;34.70
47162;DHT22;32921;53.256;8.198;2023-04-03T11:30:33;12.30;33.50
47162;DHT22;32921;53.256;8.198;2023-04-03T11:36:06;12.20;33.60
47162;DHT22;32921;53.256;8.198;2023-04-03T11:38:38;12.00;33.30
47162;DHT22;32921;53.256;8.198;2023-04-03T11:41:08;12.30;32.10
47162;DHT22;32921;53.256;8.198;2023-04-03T11:43:39;13.50;31.40
47162;DHT22;32921;53.256;8.198;2023-04-03T11:46:07;13.20;33.00
47162;DHT22;32921;53.256;8.198;2023-04-03T11:48:42;13.60;32.60
47162;DHT22;32921;53.256;8.198;2023-04-03T11:53:40;14.80;29.60
47162;DHT22;32921;53.256;8.198;2023-04-03T12:04:19;14.00;30.00
47162;DHT22;32921;53.256;8.198;2023-04-03T12:09:28;13.50;30.90
47162;DHT22;32921;53.256;8.198;2023-04-03T12:11:56;13.70;31.50
47162;DHT22;32921;53.256;8.198;2023-04-03T12:14:24;14.00;29.80
47162;DHT22;32921;53.256;8.198;2023-04-03T12:16:53;14.40;29.60
47162;DHT22;32921;53.256;8.198;2023-04-03T12:19:36;14.70;29.50
47162;DHT22;32921;53.256;8.198;2023-04-03T12:22:09;14.50;29.10
47162;DHT22;32921;53.256;8.198;2023-04-03T12:24:37;13.80;30.30
47162;DHT22;32921;53.256;8.198;2023-04-03T12:37:34;12.80;30.60
47162;DHT22;32921;53.256;8.198;2023-04-03T12:40:32;12.20;32.20
47162;DHT22;32921;53.256;8.198;2023-04-03T12:46:02;13.80;32.40
47162;DHT22;32921;53.256;8.198;2023-04-03T12:48:30;13.90;32.00
47162;DHT22;32921;53.256;8.198;2023-04-03T12:50:58;14.00;31.60
47162;DHT22;32921;53.256;8.198;2023-04-03T12:53:35;15.00;31.10
47162;DHT22;32921;53.256;8.198;2023-04-03T12:56:27;16.20;30.60
47162;DHT22;32921;53.256;8.198;2023-04-03T12:59:22;15.70;31.30
47162;DHT22;32921;53.256;8.198;2023-04-03T13:02:00;14.90;31.80
47162;DHT22;32921;53.256;8.198;2023-04-03T13:04:31;13.60;34.60
47162;DHT22;32921;53.256;8.198;2023-04-03T13:06:57;13.90;33.80
47162;DHT22;32921;53.256;8.198;2023-04-03T13:09:26;14.60;32.70
47162;DHT22;32921;53.256;8.198;2023-04-03T13:12:00;14.80;32.70
47162;DHT22;32921;53.256;8.198;2023-04-03T13:14:27;16.40;30.30
47162;DHT22;32921;53.256;8.198;2023-04-03T13:17:04;16.50;30.50
47162;DHT22;32921;53.256;8.198;2023-04-03T13:19:31;15.40;31.50
47162;DHT22;32921;53.256;8.198;2023-04-03T13:22:07;13.40;34.00
47162;DHT22;32921;53.256;8.198;2023-04-03T13:24:37;12.60;36.00
47162;DHT22;32921;53.256;8.198;2023-04-03T13:27:03;12.20;37.90
47162;DHT22;32921;53.256;8.198;2023-04-03T13:29:35;11.70;38.30
47162;DHT22;32921;53.256;8.198;2023-04-03T13:32:03;11.40;40.50
47162;DHT22;32921;53.256;8.198;2023-04-03T13:34:37;12.00;39.80
47162;DHT22;32921;53.256;8.198;2023-04-03T13:37:04;12.40;39.60
47162;DHT22;32921;53.256;8.198;2023-04-03T13:39:35;12.70;38.20
47162;DHT22;32921;53.256;8.198;2023-04-03T13:42:24;13.80;36.90
47162;DHT22;32921;53.256;8.198;2023-04-03T13:45:20;14.40;35.60
47162;DHT22;32921;53.256;8.198;2023-04-03T13:47:49;14.50;35.40
47162;DHT22;32921;53.256;8.198;2023-04-03T13:50:19;13.60;36.60
47162;DHT22;32921;53.256;8.198;2023-04-03T13:53:00;13.80;36.00
47162;DHT22;32921;53.256;8.198;2023-04-03T13:55:34;13.60;35.90
47162;DHT22;32921;53.256;8.198;2023-04-03T13:58:01;14.20;34.90
47162;DHT22;32921;53.256;8.198;2023-04-03T14:00:32;14.00;36.60
47162;DHT22;32921;53.256;8.198;2023-04-03T14:02:58;13.30;38.50
47162;DHT22;32921;53.256;8.198;2023-04-03T14:05:24;14.30;37.00
47162;DHT22;32921;53.256;8.198;2023-04-03T14:07:51;14.30;35.70
47162;DHT22;32921;53.256;8.198;2023-04-03T14:10:17;13.30;36.50
47162;DHT22;32921;53.256;8.198;2023-04-03T14:12:43;13.20;38.20
47162;DHT22;32921;53.256;8.198;2023-04-03T14:15:23;14.40;35.50
47162;DHT22;32921;53.256;8.198;2023-04-03T14:17:50;15.10;33.60
47162;DHT22;32921;53.256;8.198;2023-04-03T14:20:19;13.10;36.70
47162;DHT22;32921;53.256;8.198;2023-04-03T14:22:46;11.10;41.00
47162;DHT22;32921;53.256;8.198;2023-04-03T14:25:11;10.40;43.30
47162;DHT22;32921;53.256;8.198;2023-04-03T14:27:42;11.00;42.10
47162;DHT22;32921;53.256;8.198;2023-04-03T14:30:17;12.00;40.50
47162;DHT22;32921;53.256;8.198;2023-04-03T14:32:43;11.90;41.50
47162;DHT22;32921;53.256;8.198;2023-04-03T14:35:09;12.30;39.50
47162;DHT22;32921;53.256;8.198;2023-04-03T14:37:34;12.20;40.40
47162;DHT22;32921;53.256;8.198;2023-04-03T14:40:02;12.00;39.60
47162;DHT22;32921;53.256;8.198;2023-04-03T14:42:32;12.60;39.60
47162;DHT22;32921;53.256;8.198;2023-04-03T14:44:59;12.30;38.80
47162;DHT22;32921;53.256;8.198;2023-04-03T14:47:28;11.90;41.00
47162;DHT22;32921;53.256;8.198;2023-04-03T14:49:54;12.40;37.80
47162;DHT22;32921;53.256;8.198;2023-04-03T14:52:26;12.80;38.00
47162;DHT22;32921;53.256;8.198;2023-04-03T14:54:53;12.40;37.80
47162;DHT22;32921;53.256;8.198;2023-04-03T14:57:20;12.20;39.20
47162;DHT22;32921;53.256;8.198;2023-04-03T14:59:47;12.90;38.10
47162;DHT22;32921;53.256;8.198;2023-04-03T15:04:55;13.60;36.30
47162;DHT22;32921;53.256;8.198;2023-04-03T15:07:21;12.70;37.50
47162;DHT22;32921;53.256;8.198;2023-04-03T15:09:48;12.10;39.00
47162;DHT22;32921;53.256;8.198;2023-04-03T15:12:14;12.20;40.10
47162;DHT22;32921;53.256;8.198;2023-04-03T15:14:39;12.30;40.50
47162;DHT22;32921;53.256;8.198;2023-04-03T15:17:06;13.00;38.90
47162;DHT22;32921;53.256;8.198;2023-04-03T15:19:39;13.60;38.00
47162;DHT22;32921;53.256;8.198;2023-04-03T15:22:05;13.60;38.90
47162;DHT22;32921;53.256;8.198;2023-04-03T15:24:31;12.80;40.10
47162;DHT22;32921;53.256;8.198;2023-04-03T15:26:56;12.70;41.60
47162;DHT22;32921;53.256;8.198;2023-04-03T15:29:22;12.80;42.00
47162;DHT22;32921;53.256;8.198;2023-04-03T15:31:48;12.00;44.10
47162;DHT22;32921;53.256;8.198;2023-04-03T15:34:15;11.60;44.80
47162;DHT22;32921;53.256;8.198;2023-04-03T15:36:41;11.60;45.50
47162;DHT22;32921;53.256;8.198;2023-04-03T15:39:07;12.80;42.70
47162;DHT22;32921;53.256;8.198;2023-04-03T15:41:32;13.30;42.00
47162;DHT22;32921;53.256;8.198;2023-04-03T15:43:58;12.80;43.50
47162;DHT22;32921;53.256;8.198;2023-04-03T15:46:23;12.20;45.40
47162;DHT22;32921;53.256;8.198;2023-04-03T15:48:49;12.20;45.00
47162;DHT22;32921;53.256;8.198;2023-04-03T15:51:15;12.80;43.80
47162;DHT22;32921;53.256;8.198;2023-04-03T15:53:40;12.00;44.10
47162;DHT22;32921;53.256;8.198;2023-04-03T15:56:07;12.30;44.10
47162;DHT22;32921;53.256;8.198;2023-04-03T15:58:34;11.80;45.80
47162;DHT22;32921;53.256;8.198;2023-04-03T16:01:00;12.40;44.10
47162;DHT22;32921;53.256;8.198;2023-04-03T16:03:26;12.10;45.20
47162;DHT22;32921;53.256;8.198;2023-04-03T16:05:52;10.90;48.70
47162;DHT22;32921;53.256;8.198;2023-04-03T16:08:18;11.40;47.60
47162;DHT22;32921;53.256;8.198;2023-04-03T16:10:44;12.00;47.00
47162;DHT22;32921;53.256;8.198;2023-04-03T16:13:13;13.00;44.50
47162;DHT22;32921;53.256;8.198;2023-04-03T16:15:40;12.40;45.60
47162;DHT22;32921;53.256;8.198;2023-04-03T16:18:05;11.50;47.80
47162;DHT22;32921;53.256;8.198;2023-04-03T16:20:31;11.30;47.60
47162;DHT22;32921;53.256;8.198;2023-04-03T16:22:58;10.80;49.50
47162;DHT22;32921;53.256;8.198;2023-04-03T16:25:25;9.80;52.50
47162;DHT22;32921;53.256;8.198;2023-04-03T16:27:50;8.50;57.20
47162;DHT22;32921;53.256;8.198;2023-04-03T16:30:16;7.60;60.40
47162;DHT22;32921;53.256;8.198;2023-04-03T16:32:42;7.40;61.70
47162;DHT22;32921;53.256;8.198;2023-04-03T16:35:08;7.30;62.00
47162;DHT22;32921;53.256;8.198;2023-04-03T16:37:36;7.20;63.50
47162;DHT22;32921;53.256;8.198;2023-04-03T16:40:02;7.20;63.80
47162;DHT22;32921;53.256;8.198;2023-04-03T16:42:28;7.10;64.90
47162;DHT22;32921;53.256;8.198;2023-04-03T16:44:53;7.00;65.30
47162;DHT22;32921;53.256;8.198;2023-04-03T16:47:19;7.00;65.80
47162;DHT22;32921;53.256;8.198;2023-04-03T16:49:45;6.90;66.50
47162;DHT22;32921;53.256;8.198;2023-04-03T16:52:12;6.80;68.00
47162;DHT22;32921;53.256;8.198;2023-04-03T16:54:37;6.90;68.30
47162;DHT22;32921;53.256;8.198;2023-04-03T16:57:03;6.80;68.50
47162;DHT22;32921;53.256;8.198;2023-04-03T16:59:28;6.70;68.80
47162;DHT22;32921;53.256;8.198;2023-04-03T17:01:54;6.80;69.10